sensor_id;sensor_type;location;lat;lon;timestamp;temperature;humidity
20858;DHT22;10589;53.636;10.012;2023-09-07T03:46:52;16.00;99.90
20858;DHT22;10589;53.636;10.012;2023-09-07T03:49:20;16.00;99.90
20858;DHT22;10589;53.636;10.012;2023-09-07T03:51:46;16.00;99.90
20858;DHT22;10589;53.636;10.012;2023-09-07T03:54:11;16.00;99.90
20858;DHT22;10589;53.636;10.012;2023-09-07T03:56:37;15.90;99.90
20858;DHT22;10589;53.636;10.012;2023-09-07T03:59:04;15.90;99.90
20858;DHT22;10589;53.636;10.012;2023-09-07T04:01:30;15.90;99.90
20858;DHT22;10589;53.636;10.012;2023-09-07T04:03:55;15.80;99.90
20858;DHT22;10589;53.636;10.012;2023-09-07T04:06:21;15.80;99.90
20858;DHT22;10589;53.636;10.012;2023-09-07T04:08:46;15.80;99.90
20858;DHT22;10589;53.636;10.012;2023-09-07T04:11:13;15.90;99.90
20858;DHT22;10589;53.636;10.012;2023-09-07T04:13:38;15.90;99.90
20858;DHT22;10589;53.636;10.012;2023-09-07T04:16:04;15.90;99.90
20858;DHT22;10589;53.636;10.012;2023-09-07T04:18:30;15.90;99.90
20858;DHT22;10589;53.636;10.012;2023-09-07T04:21:05;15.90;99.90
20858;DHT22;10589;53.636;10.012;2023-09-07T04:23:30;16.00;99.90
20858;DHT22;10589;53.636;10.012;2023-09-07T04:26:07;16.00;99.90
20858;DHT22;10589;53.636;10.012;2023-09-07T04:28:33;15.90;99.90
20858;DHT22;10589;53.636;10.012;2023-09-07T04:30:59;16.00;99.90
20858;DHT22;10589;53.636;10.012;2023-09-07T04:33:24;15.90;99.90
20858;DHT22;10589;53.636;10.012;2023-09-07T04:35:50;15.90;99.90
20858;DHT22;10589;53.636;10.012;2023-09-07T04:38:16;15.90;99.90
20858;DHT22;10589;53.636;10.012;2023-09-07T04:40:41;15.90;99.90
20858;DHT22;10589;53.636;10.012;2023-09-07T04:43:08;15.90;99.90
20858;DHT22;10589;53.636;10.012;2023-09-07T04:45:33;15.90;99.90
20858;DHT22;10589;53.636;10.012;2023-09-07T04:47:59;15.90;99.90
20858;DHT22;10589;53.636;10.012;2023-09-07T04:50:25;15.90;99.90
20858;DHT22;10589;53.636;10.012;2023-09-07T04:52:50;15.90;99.90
20858;DHT22;10589;53.636;10.012;2023-09-07T04:55:16;15.90;99.90
20858;DHT22;10589;53.636;10.012;2023-09-07T04:57:42;15.90;99.90
20858;DHT22;10589;53.636;10.012;2023-09-07T05:00:08;15.90;99.90
20858;DHT22;10589;53.636;10.012;2023-09-07T05:02:34;15.90;99.90
20858;DHT22;10589;53.636;10.012;2023-09-07T05:05:06;15.90;99.90
20858;DHT22;10589;53.636;10.012;2023-09-07T05:07:32;15.90;99.90
20858;DHT22;10589;53.636;10.012;2023-09-07T05:09:57;15.90;99.90
20858;DHT22;10589;53.636;10.012;2023-09-07T05:12:23;15.90;99.90
20858;DHT22;10589;53.636;10.012;2023-09-07T05:14:48;16.00;99.90
20858;DHT22;10589;53.636;10.012;2023-09-07T05:17:14;16.00;99.90
20858;DHT22;10589;53.636;10.012;2023-09-07T05:19:39;16.00;99.90
20858;DHT22;10589;53.636;10.012;2023-09-07T05:22:05;16.10;99.90
20858;DHT22;10589;53.636;10.012;2023-09-07T05:24:34;16.10;99.90
20858;DHT22;10589;53.636;10.012;2023-09-07T05:27:00;16.10;99.90
20858;DHT22;10589;53.636;10.012;2023-09-07T05:29:26;16.10;99.90
20858;DHT22;10589;53.636;10.012;2023-09-07T05:31:51;16.20;99.90
20858;DHT22;10589;53.636;10.012;2023-09-07T05:34:17;16.20;99.90
20858;DHT22;10589;53.636;10.012;2023-09-07T05:36:43;16.30;99.90
20858;DHT22;10589;53.636;10.012;2023-09-07T05:39:08;16.40;99.90
20858;DHT22;10589;53.636;10.012;2023-09-07T05:41:34;16.40;99.90
20858;DHT22;10589;53.636;10.012;2023-09-07T05:43:59;16.40;99.90
20858;DHT22;10589;53.636;10.012;2023-09-07T05:46:25;16.50;99.90
20858;DHT22;10589;53.636;10.012;2023-09-07T05:48:51;16.50;99.90
20858;DHT22;10589;53.636;10.012;2023-09-07T05:51:16;16.60;99.90
20858;DHT22;10589;53.636;10.012;2023-09-07T05:53:42;16.60;99.90
20858;DHT22;10589;53.636;10.012;2023-09-07T05:56:07;16.70;99.90
20858;DHT22;10589;53.636;10.012;2023-09-07T05:58:33;16.70;99.90
20858;DHT22;10589;53.636;10.012;2023-09-07T06:00:59;16.80;99.90
20858;DHT22;10589;53.636;10.012;2023-09-07T06:03:25;16.90;99.90
20858;DHT22;10589;53.636;10.012;2023-09-07T06:05:50;17.00;99.90
20858;DHT22;10589;53.636;10.012;2023-09-07T06:08:16;17.00;99.90
20858;DHT22;10589;53.636;10.012;2023-09-07T06:10:42;17.00;99.90
20858;DHT22;10589;53.636;10.012;2023-09-07T06:13:07;17.10;99.90
20858;DHT22;10589;53.636;10.012;2023-09-07T06:15:33;17.20;99.90
20858;DHT22;10589;53.636;10.012;2023-09-07T06:17:58;17.30;99.90
20858;DHT22;10589;53.636;10.012;2023-09-07T06:20:24;17.30;99.90
20858;DHT22;10589;53.636;10.012;2023-09-07T06:22:49;17.40;99.90
20858;DHT22;10589;53.636;10.012;2023-09-07T06:25:16;17.50;99.90
20858;DHT22;10589;53.636;10.012;2023-09-07T06:27:41;17.50;99.90
20858;DHT22;10589;53.636;10.012;2023-09-07T06:30:07;17.60;99.90
20858;DHT22;10589;53.636;10.012;2023-09-07T06:32:33;17.70;99.90
20858;DHT22;10589;53.636;10.012;2023-09-07T06:34:59;17.80;99.90
20858;DHT22;10589;53.636;10.012;2023-09-07T06:37:24;18.00;99.90
20858;DHT22;10589;53.636;10.012;2023-09-07T06:39:50;18.10;99.90
20858;DHT22;10589;53.636;10.012;2023-09-07T06:42:16;18.20;99.90
20858;DHT22;10589;53.636;10.012;2023-09-07T06:44:42;18.30;99.90
20858;DHT22;10589;53.636;10.012;2023-09-07T06:47:08;18.40;99.90
20858;DHT22;10589;53.636;10.012;2023-09-07T06:49:34;18.50;99.90
20858;DHT22;10589;53.636;10.012;2023-09-07T06:52:00;18.70;99.90
20858;DHT22;10589;53.636;10.012;2023-09-07T06:54:27;18.70;99.90
20858;DHT22;10589;53.636;10.012;2023-09-07T06:56:53;18.80;99.90
20858;DHT22;10589;53.636;10.012;2023-09-07T06:59:18;18.90;99.90
20858;DHT22;10589;53.636;10.012;2023-09-07T07:01:44;19.00;99.90
20858;DHT22;10589;53.636;10.012;2023-09-07T07:04:09;19.10;99.90
20858;DHT22;10589;53.636;10.012;2023-09-07T07:06:35;19.20;99.90
20858;DHT22;10589;53.636;10.012;2023-09-07T07:09:01;19.30;99.90
20858;DHT22;10589;53.636;10.012;2023-09-07T07:11:26;19.50;99.90
20858;DHT22;10589;53.636;10.012;2023-09-07T07:13:52;19.60;99.90
20858;DHT22;10589;53.636;10.012;2023-09-07T07:16:18;19.60;99.90
20858;DHT22;10589;53.636;10.012;2023-09-07T07:18:43;19.70;99.90
20858;DHT22;10589;53.636;10.012;2023-09-07T07:21:09;19.80;99.90
20858;DHT22;10589;53.636;10.012;2023-09-07T07:23:35;19.90;99.90
20858;DHT22;10589;53.636;10.012;2023-09-07T07:26:01;20.00;99.90
20858;DHT22;10589;53.636;10.012;2023-09-07T07:28:27;20.00;99.90
20858;DHT22;10589;53.636;10.012;2023-09-07T07:30:53;20.20;99.90
20858;DHT22;10589;53.636;10.012;2023-09-07T07:33:22;20.20;99.90
20858;DHT22;10589;53.636;10.012;2023-09-07T07:35:47;20.30;99.90
20858;DHT22;10589;53.636;10.012;2023-09-07T07:38:14;20.50;99.90
20858;DHT22;10589;53.636;10.012;2023-09-07T07:40:40;20.60;99.90
20858;DHT22;10589;53.636;10.012;2023-09-07T07:43:05;20.80;99.90
20858;DHT22;10589;53.636;10.012;2023-09-07T07:45:32;20.90;99.90
20858;DHT22;10589;53.636;10.012;2023-09-07T07:48:02;21.00;99.90
20858;DHT22;10589;53.636;10.012;2023-09-07T07:50:27;21.10;99.90
20858;DHT22;10589;53.636;10.012;2023-09-07T07:52:53;21.30;99.90
20858;DHT22;10589;53.636;10.012;2023-09-07T07:55:18;21.40;99.90
20858;DHT22;10589;53.636;10.012;2023-09-07T07:57:44;21.60;99.90
20858;DHT22;10589;53.636;10.012;2023-09-07T08:00:10;21.60;99.90
20858;DHT22;10589;53.636;10.012;2023-09-07T08:02:36;21.80;99.90
20858;DHT22;10589;53.636;10.012;2023-09-07T08:05:01;21.90;99.90
20858;DHT22;10589;53.636;10.012;2023-09-07T08:07:27;22.00;99.90
20858;DHT22;10589;53.636;10.012;2023-09-07T08:09:53;22.10;99.90
20858;DHT22;10589;53.636;10.012;2023-09-07T08:12:19;22.30;99.90
20858;DHT22;10589;53.636;10.012;2023-09-07T08:14:45;22.40;99.90
20858;DHT22;10589;53.636;10.012;2023-09-07T08:17:12;22.50;99.90
20858;DHT22;10589;53.636;10.012;2023-09-07T08:19:38;22.60;99.90
20858;DHT22;10589;53.636;10.012;2023-09-07T08:22:04;22.70;99.90
20858;DHT22;10589;53.636;10.012;2023-09-07T08:24:30;22.90;99.90
20858;DHT22;10589;53.636;10.012;2023-09-07T08:26:56;23.00;99.90
20858;DHT22;10589;53.636;10.012;2023-09-07T08:29:23;23.10;99.90
20858;DHT22;10589;53.636;10.012;2023-09-07T08:31:55;23.30;99.90
20858;DHT22;10589;53.636;10.012;2023-09-07T08:34:21;23.40;99.90
20858;DHT22;10589;53.636;10.012;2023-09-07T08:36:48;23.50;99.90
20858;DHT22;10589;53.636;10.012;2023-09-07T08:39:15;23.60;99.90
20858;DHT22;10589;53.636;10.012;2023-09-07T08:41:42;23.80;99.90
20858;DHT22;10589;53.636;10.012;2023-09-07T08:44:12;23.80;99.90
20858;DHT22;10589;53.636;10.012;2023-09-07T08:46:43;23.90;99.90
20858;DHT22;10589;53.636;10.012;2023-09-07T08:49:08;24.00;99.90
20858;DHT22;10589;53.636;10.012;2023-09-07T08:51:34;24.10;99.90
20858;DHT22;10589;53.636;10.012;2023-09-07T08:54:03;24.20;99.90
20858;DHT22;10589;53.636;10.012;2023-09-07T08:56:31;24.40;99.90
20858;DHT22;10589;53.636;10.012;2023-09-07T08:58:57;24.40;99.90
20858;DHT22;10589;53.636;10.012;2023-09-07T09:01:23;24.60;99.90
20858;DHT22;10589;53.636;10.012;2023-09-07T09:03:51;24.60;99.90
20858;DHT22;10589;53.636;10.012;2023-09-07T09:06:18;24.80;99.90
20858;DHT22;10589;53.636;10.012;2023-09-07T09:08:45;25.00;99.90
20858;DHT22;10589;53.636;10.012;2023-09-07T09:11:12;25.10;99.90
20858;DHT22;10589;53.636;10.012;2023-09-07T09:13:39;25.10;99.90
20858;DHT22;10589;53.636;10.012;2023-09-07T09:16:05;25.20;99.90
20858;DHT22;10589;53.636;10.012;2023-09-07T09:18:31;25.30;99.90
20858;DHT22;10589;53.636;10.012;2023-09-07T09:20:57;25.40;99.90
20858;DHT22;10589;53.636;10.012;2023-09-07T09:23:32;25.60;99.90
20858;DHT22;10589;53.636;10.012;2023-09-07T09:25:59;25.60;99.90
20858;DHT22;10589;53.636;10.012;2023-09-07T09:28:26;25.70;99.90
20858;DHT22;10589;53.636;10.012;2023-09-07T09:30:53;25.80;99.90
20858;DHT22;10589;53.636;10.012;2023-09-07T09:33:22;26.00;99.90
20858;DHT22;10589;53.636;10.012;2023-09-07T09:35:49;26.10;99.90
20858;DHT22;10589;53.636;10.012;2023-09-07T09:38:16;26.20;99.90
20858;DHT22;10589;53.636;10.012;2023-09-07T09:40:42;26.20;99.90
20858;DHT22;10589;53.636;10.012;2023-09-07T09:43:09;26.30;99.90
20858;DHT22;10589;53.636;10.012;2023-09-07T09:45:35;26.30;99.90
20858;DHT22;10589;53.636;10.012;2023-09-07T09:48:01;26.30;99.90
20858;DHT22;10589;53.636;10.012;2023-09-07T09:50:28;26.30;99.90
20858;DHT22;10589;53.636;10.012;2023-09-07T09:52:55;26.30;99.90
20858;DHT22;10589;53.636;10.012;2023-09-07T09:55:22;26.60;99.90
20858;DHT22;10589;53.636;10.012;2023-09-07T09:57:47;26.60;99.90
20858;DHT22;10589;53.636;10.012;2023-09-07T10:00:15;26.50;99.90
20858;DHT22;10589;53.636;10.012;2023-09-07T10:02:41;26.60;99.90
20858;DHT22;10589;53.636;10.012;2023-09-07T10:05:08;26.60;99.90
20858;DHT22;10589;53.636;10.012;2023-09-07T10:07:47;26.60;99.90
20858;DHT22;10589;53.636;10.012;2023-09-07T10:10:14;26.50;99.90
20858;DHT22;10589;53.636;10.012;2023-09-07T10:12:44;26.60;99.90
20858;DHT22;10589;53.636;10.012;2023-09-07T10:15:24;26.80;99.90
20858;DHT22;10589;53.636;10.012;2023-09-07T10:17:50;26.90;99.90
20858;DHT22;10589;53.636;10.012;2023-09-07T10:20:18;26.90;99.90
20858;DHT22;10589;53.636;10.012;2023-09-07T10:22:44;26.80;99.90
20858;DHT22;10589;53.636;10.012;2023-09-07T10:25:20;26.70;99.90
20858;DHT22;10589;53.636;10.012;2023-09-07T10:27:46;26.80;99.90
20858;DHT22;10589;53.636;10.012;2023-09-07T10:30:13;26.90;99.90
20858;DHT22;10589;53.636;10.012;2023-09-07T10:32:39;26.80;99.90
20858;DHT22;10589;53.636;10.012;2023-09-07T10:35:13;26.90;99.90
20858;DHT22;10589;53.636;10.012;2023-09-07T10:37:40;27.00;99.90
20858;DHT22;10589;53.636;10.012;2023-09-07T10:40:07;27.20;99.90
20858;DHT22;10589;53.636;10.012;2023-09-07T10:42:37;27.20;99.90
20858;DHT22;10589;53.636;10.012;2023-09-07T10:45:21;27.10;99.90
20858;DHT22;10589;53.636;10.012;2023-09-07T10:47:46;27.20;99.90
20858;DHT22;10589;53.636;10.012;2023-09-07T10:50:13;27.40;99.90
20858;DHT22;10589;53.636;10.012;2023-09-07T10:52:42;27.40;99.90
20858;DHT22;10589;53.636;10.012;2023-09-07T10:55:10;27.40;99.90
20858;DHT22;10589;53.636;10.012;2023-09-07T10:57:47;27.60;99.90
20858;DHT22;10589;53.636;10.012;2023-09-07T11:00:13;27.40;99.90
20858;DHT22;10589;53.636;10.012;2023-09-07T11:02:40;27.40;99.90
20858;DHT22;10589;53.636;10.012;2023-09-07T11:05:06;27.40;99.90
20858;DHT22;10589;53.636;10.012;2023-09-07T11:07:33;27.40;99.90
20858;DHT22;10589;53.636;10.012;2023-09-07T11:09:59;27.40;99.90
20858;DHT22;10589;53.636;10.012;2023-09-07T11:12:24;27.40;99.90
20858;DHT22;10589;53.636;10.012;2023-09-07T11:14:51;27.40;99.90
20858;DHT22;10589;53.636;10.012;2023-09-07T11:17:17;27.60;99.90
20858;DHT22;10589;53.636;10.012;2023-09-07T11:19:43;27.70;99.90
20858;DHT22;10589;53.636;10.012;2023-09-07T11:22:12;27.70;99.90
20858;DHT22;10589;53.636;10.012;2023-09-07T11:24:40;27.80;99.90
20858;DHT22;10589;53.636;10.012;2023-09-07T11:27:05;27.80;99.90
20858;DHT22;10589;53.636;10.012;2023-09-07T11:29:31;27.90;99.90
20858;DHT22;10589;53.636;10.012;2023-09-07T11:32:10;27.90;99.90
20858;DHT22;10589;53.636;10.012;2023-09-07T11:34:47;27.90;99.90
20858;DHT22;10589;53.636;10.012;2023-09-07T11:37:14;28.00;99.90
20858;DHT22;10589;53.636;10.012;2023-09-07T11:39:40;28.00;99.90
20858;DHT22;10589;53.636;10.012;2023-09-07T11:42:06;28.10;99.90
20858;DHT22;10589;53.636;10.012;2023-09-07T11:44:31;28.10;99.90
20858;DHT22;10589;53.636;10.012;2023-09-07T11:46:57;28.40;99.90
20858;DHT22;10589;53.636;10.012;2023-09-07T11:49:22;28.40;99.90
20858;DHT22;10589;53.636;10.012;2023-09-07T11:51:49;28.30;99.90
20858;DHT22;10589;53.636;10.012;2023-09-07T11:54:15;28.40;99.90
20858;DHT22;10589;53.636;10.012;2023-09-07T11:56:41;28.40;99.90
20858;DHT22;10589;53.636;10.012;2023-09-07T11:59:08;28.40;99.90
20858;DHT22;10589;53.636;10.012;2023-09-07T12:01:35;28.40;99.90
20858;DHT22;10589;53.636;10.012;2023-09-07T12:04:00;28.60;99.90
20858;DHT22;10589;53.636;10.012;2023-09-07T12:06:26;28.50;99.90
20858;DHT22;10589;53.636;10.012;2023-09-07T12:09:05;28.50;99.90
20858;DHT22;10589;53.636;10.012;2023-09-07T12:11:32;28.60;99.90
20858;DHT22;10589;53.636;10.012;2023-09-07T12:13:58;28.90;99.90
20858;DHT22;10589;53.636;10.012;2023-09-07T12:16:28;29.00;99.90
20858;DHT22;10589;53.636;10.012;2023-09-07T12:18:55;28.90;99.90
20858;DHT22;10589;53.636;10.012;2023-09-07T12:21:20;29.00;99.90
20858;DHT22;10589;53.636;10.012;2023-09-07T12:23:46;29.20;99.90
20858;DHT22;10589;53.636;10.012;2023-09-07T12:26:12;29.10;99.90
20858;DHT22;10589;53.636;10.012;2023-09-07T12:28:39;29.30;99.90
20858;DHT22;10589;53.636;10.012;2023-09-07T12:31:05;29.50;99.90
20858;DHT22;10589;53.636;10.012;2023-09-07T12:33:30;29.60;99.90
20858;DHT22;10589;53.636;10.012;2023-09-07T12:36:00;29.70;99.90
20858;DHT22;10589;53.636;10.012;2023-09-07T12:38:25;29.60;99.90
20858;DHT22;10589;53.636;10.012;2023-09-07T12:40:54;30.00;99.90
20858;DHT22;10589;53.636;10.012;2023-09-07T12:43:25;30.20;99.90
20858;DHT22;10589;53.636;10.012;2023-09-07T12:45:51;30.50;99.90
20858;DHT22;10589;53.636;10.012;2023-09-07T12:48:17;31.20;99.90
20858;DHT22;10589;53.636;10.012;2023-09-07T12:50:42;31.60;99.90
20858;DHT22;10589;53.636;10.012;2023-09-07T12:53:10;32.90;99.90
20858;DHT22;10589;53.636;10.012;2023-09-07T12:55:36;33.90;99.90
20858;DHT22;10589;53.636;10.012;2023-09-07T12:58:02;34.00;99.90
20858;DHT22;10589;53.636;10.012;2023-09-07T13:00:27;34.20;99.90
20858;DHT22;10589;53.636;10.012;2023-09-07T13:02:54;35.40;99.90
20858;DHT22;10589;53.636;10.012;2023-09-07T13:05:20;36.30;99.90
20858;DHT22;10589;53.636;10.012;2023-09-07T13:07:47;37.20;99.90
20858;DHT22;10589;53.636;10.012;2023-09-07T13:10:13;37.80;97.70
20858;DHT22;10589;53.636;10.012;2023-09-07T13:12:40;38.00;96.70
20858;DHT22;10589;53.636;10.012;2023-09-07T13:15:06;38.00;95.90
20858;DHT22;10589;53.636;10.012;2023-09-07T13:17:32;37.20;94.30
20858;DHT22;10589;53.636;10.012;2023-09-07T13:19:59;37.40;94.50
20858;DHT22;10589;53.636;10.012;2023-09-07T13:22:24;37.60;92.70
20858;DHT22;10589;53.636;10.012;2023-09-07T13:24:50;36.90;92.70
20858;DHT22;10589;53.636;10.012;2023-09-07T13:27:16;37.10;91.40
20858;DHT22;10589;53.636;10.012;2023-09-07T13:29:41;37.10;90.50
20858;DHT22;10589;53.636;10.012;2023-09-07T13:32:08;36.60;91.20
20858;DHT22;10589;53.636;10.012;2023-09-07T13:34:33;37.20;90.30
20858;DHT22;10589;53.636;10.012;2023-09-07T13:36:59;36.90;90.70
20858;DHT22;10589;53.636;10.012;2023-09-07T13:39:24;37.30;90.00
20858;DHT22;10589;53.636;10.012;2023-09-07T13:41:50;38.40;88.70
20858;DHT22;10589;53.636;10.012;2023-09-07T13:44:16;38.60;88.30
20858;DHT22;10589;53.636;10.012;2023-09-07T13:46:43;39.70;89.40
20858;DHT22;10589;53.636;10.012;2023-09-07T13:49:09;39.90;85.20
20858;DHT22;10589;53.636;10.012;2023-09-07T13:51:35;39.60;86.00
20858;DHT22;10589;53.636;10.012;2023-09-07T13:54:07;40.20;82.60
20858;DHT22;10589;53.636;10.012;2023-09-07T13:56:34;38.80;83.00
20858;DHT22;10589;53.636;10.012;2023-09-07T13:59:00;39.20;82.80
20858;DHT22;10589;53.636;10.012;2023-09-07T14:01:25;39.10;81.10
20858;DHT22;10589;53.636;10.012;2023-09-07T14:03:52;38.70;82.20
20858;DHT22;10589;53.636;10.012;2023-09-07T14:06:18;39.10;84.30
20858;DHT22;10589;53.636;10.012;2023-09-07T14:08:45;40.00;82.70
20858;DHT22;10589;53.636;10.012;2023-09-07T14:11:11;39.10;79.40
20858;DHT22;10589;53.636;10.012;2023-09-07T14:13:37;38.10;80.00
20858;DHT22;10589;53.636;10.012;2023-09-07T14:16:04;38.10;81.50
20858;DHT22;10589;53.636;10.012;2023-09-07T14:18:31;37.50;81.80
20858;DHT22;10589;53.636;10.012;2023-09-07T14:20:56;37.40;81.80
20858;DHT22;10589;53.636;10.012;2023-09-07T14:23:24;38.20;80.90
20858;DHT22;10589;53.636;10.012;2023-09-07T14:25:51;38.30;82.70
20858;DHT22;10589;53.636;10.012;2023-09-07T14:28:17;36.90;82.10
20858;DHT22;10589;53.636;10.012;2023-09-07T14:30:42;36.00;84.80
20858;DHT22;10589;53.636;10.012;2023-09-07T14:33:08;35.50;86.70
20858;DHT22;10589;53.636;10.012;2023-09-07T14:35:34;35.40;87.60
20858;DHT22;10589;53.636;10.012;2023-09-07T14:38:00;34.90;85.10
20858;DHT22;10589;53.636;10.012;2023-09-07T14:40:26;34.60;85.80
20858;DHT22;10589;53.636;10.012;2023-09-07T14:42:51;34.70;87.10
20858;DHT22;10589;53.636;10.012;2023-09-07T14:45:19;34.70;86.00
20858;DHT22;10589;53.636;10.012;2023-09-07T14:47:44;35.10;85.40
20858;DHT22;10589;53.636;10.012;2023-09-07T14:50:10;35.30;84.20
20858;DHT22;10589;53.636;10.012;2023-09-07T14:52:36;35.30;86.20
20858;DHT22;10589;53.636;10.012;2023-09-07T14:55:07;35.50;84.80
20858;DHT22;10589;53.636;10.012;2023-09-07T14:57:33;35.10;83.40
20858;DHT22;10589;53.636;10.012;2023-09-07T14:59:59;34.50;85.50
20858;DHT22;10589;53.636;10.012;2023-09-07T15:02:25;33.50;86.20
20858;DHT22;10589;53.636;10.012;2023-09-07T15:04:51;32.80;90.10
20858;DHT22;10589;53.636;10.012;2023-09-07T15:07:16;32.70;90.30
20858;DHT22;10589;53.636;10.012;2023-09-07T15:09:42;32.30;90.30
20858;DHT22;10589;53.636;10.012;2023-09-07T15:12:08;32.30;89.90
20858;DHT22;10589;53.636;10.012;2023-09-07T15:14:33;32.10;90.70
20858;DHT22;10589;53.636;10.012;2023-09-07T15:16:59;31.90;90.60
20858;DHT22;10589;53.636;10.012;2023-09-07T15:19:25;31.30;90.80
20858;DHT22;10589;53.636;10.012;2023-09-07T15:21:52;30.60;91.20
20858;DHT22;10589;53.636;10.012;2023-09-07T15:24:18;30.60;91.60
20858;DHT22;10589;53.636;10.012;2023-09-07T15:26:44;30.30;91.30
20858;DHT22;10589;53.636;10.012;2023-09-07T15:29:11;30.10;93.80
20858;DHT22;10589;53.636;10.012;2023-09-07T15:31:39;30.30;92.70
20858;DHT22;10589;53.636;10.012;2023-09-07T15:34:05;30.70;91.90
20858;DHT22;10589;53.636;10.012;2023-09-07T15:36:31;30.60;91.70
20858;DHT22;10589;53.636;10.012;2023-09-07T15:38:58;30.40;92.10
20858;DHT22;10589;53.636;10.012;2023-09-07T15:41:24;30.00;92.30
20858;DHT22;10589;53.636;10.012;2023-09-07T15:43:50;29.60;92.40
20858;DHT22;10589;53.636;10.012;2023-09-07T15:46:15;29.30;92.80
20858;DHT22;10589;53.636;10.012;2023-09-07T15:48:41;29.20;92.70
20858;DHT22;10589;53.636;10.012;2023-09-07T15:51:07;29.40;93.10
20858;DHT22;10589;53.636;10.012;2023-09-07T15:53:33;29.50;93.20
20858;DHT22;10589;53.636;10.012;2023-09-07T15:55:59;29.50;92.80
20858;DHT22;10589;53.636;10.012;2023-09-07T15:58:25;29.90;94.00
20858;DHT22;10589;53.636;10.012;2023-09-07T16:00:51;29.90;92.70
20858;DHT22;10589;53.636;10.012;2023-09-07T16:03:17;29.70;92.80
20858;DHT22;10589;53.636;10.012;2023-09-07T16:05:42;30.10;92.50
20858;DHT22;10589;53.636;10.012;2023-09-07T16:08:09;30.70;92.20
20858;DHT22;10589;53.636;10.012;2023-09-07T16:10:34;31.00;91.80
20858;DHT22;10589;53.636;10.012;2023-09-07T16:13:04;31.10;91.10
20858;DHT22;10589;53.636;10.012;2023-09-07T16:15:29;31.00;91.00
20858;DHT22;10589;53.636;10.012;2023-09-07T16:17:56;31.10;90.80
20858;DHT22;10589;53.636;10.012;2023-09-07T16:20:21;31.20;91.60
20858;DHT22;10589;53.636;10.012;2023-09-07T16:22:47;31.70;91.10
20858;DHT22;10589;53.636;10.012;2023-09-07T16:25:12;32.50;90.50
20858;DHT22;10589;53.636;10.012;2023-09-07T16:27:38;33.10;89.30
20858;DHT22;10589;53.636;10.012;2023-09-07T16:30:09;34.10;85.50
20858;DHT22;10589;53.636;10.012;2023-09-07T16:32:36;34.60;85.10
20858;DHT22;10589;53.636;10.012;2023-09-07T16:35:08;34.60;83.90
20858;DHT22;10589;53.636;10.012;2023-09-07T16:37:34;35.10;84.30
20858;DHT22;10589;53.636;10.012;2023-09-07T16:40:01;35.60;82.00
20858;DHT22;10589;53.636;10.012;2023-09-07T16:42:28;35.20;81.40
20858;DHT22;10589;53.636;10.012;2023-09-07T16:44:54;35.60;82.30
20858;DHT22;10589;53.636;10.012;2023-09-07T16:47:20;36.00;82.20
20858;DHT22;10589;53.636;10.012;2023-09-07T16:49:46;36.10;81.00
20858;DHT22;10589;53.636;10.012;2023-09-07T16:52:11;35.50;82.00
20858;DHT22;10589;53.636;10.012;2023-09-07T16:54:37;34.70;84.10
20858;DHT22;10589;53.636;10.012;2023-09-07T16:57:03;33.40;84.50
20858;DHT22;10589;53.636;10.012;2023-09-07T16:59:29;32.20;87.70
20858;DHT22;10589;53.636;10.012;2023-09-07T17:01:54;30.90;89.80
20858;DHT22;10589;53.636;10.012;2023-09-07T17:04:25;30.00;91.70
20858;DHT22;10589;53.636;10.012;2023-09-07T17:06:51;29.20;92.30
20858;DHT22;10589;53.636;10.012;2023-09-07T17:09:16;28.60;93.90
20858;DHT22;10589;53.636;10.012;2023-09-07T17:11:42;28.20;94.90
20858;DHT22;10589;53.636;10.012;2023-09-07T17:14:11;27.70;95.00
20858;DHT22;10589;53.636;10.012;2023-09-07T17:16:37;27.40;95.90
20858;DHT22;10589;53.636;10.012;2023-09-07T17:19:03;27.10;96.40
20858;DHT22;10589;53.636;10.012;2023-09-07T17:21:31;26.80;97.30
20858;DHT22;10589;53.636;10.012;2023-09-07T17:23:57;26.60;97.20
20858;DHT22;10589;53.636;10.012;2023-09-07T17:26:22;26.40;97.30
20858;DHT22;10589;53.636;10.012;2023-09-07T17:28:48;26.30;98.20
20858;DHT22;10589;53.636;10.012;2023-09-07T17:31:14;26.10;98.50
20858;DHT22;10589;53.636;10.012;2023-09-07T17:33:40;25.90;99.00
20858;DHT22;10589;53.636;10.012;2023-09-07T17:36:13;25.80;98.80
20858;DHT22;10589;53.636;10.012;2023-09-07T17:38:39;25.70;99.80
20858;DHT22;10589;53.636;10.012;2023-09-07T17:41:05;25.50;99.90
20858;DHT22;10589;53.636;10.012;2023-09-07T17:43:31;25.30;99.90
20858;DHT22;10589;53.636;10.012;2023-09-07T17:45:57;24.90;99.90
20858;DHT22;10589;53.636;10.012;2023-09-07T17:48:23;24.60;99.90
20858;DHT22;10589;53.636;10.012;2023-09-07T17:50:48;24.30;99.90
20858;DHT22;10589;53.636;10.012;2023-09-07T17:53:14;24.10;99.90
20858;DHT22;10589;53.636;10.012;2023-09-07T17:55:39;23.80;99.90
20858;DHT22;10589;53.636;10.012;2023-09-07T17:58:05;23.50;99.90
20858;DHT22;10589;53.636;10.012;2023-09-07T18:00:32;23.20;99.90
20858;DHT22;10589;53.636;10.012;2023-09-07T18:02:58;23.10;99.90
20858;DHT22;10589;53.636;10.012;2023-09-07T18:05:27;23.10;99.90
20858;DHT22;10589;53.636;10.012;2023-09-07T18:07:53;23.00;99.90
20858;DHT22;10589;53.636;10.012;2023-09-07T18:10:18;22.90;99.90
20858;DHT22;10589;53.636;10.012;2023-09-07T18:12:44;22.90;99.90
20858;DHT22;10589;53.636;10.012;2023-09-07T18:15:10;22.80;99.90
20858;DHT22;10589;53.636;10.012;2023-09-07T18:17:36;22.80;99.90
20858;DHT22;10589;53.636;10.012;2023-09-07T18:20:06;22.80;99.90
20858;DHT22;10589;53.636;10.012;2023-09-07T18:22:33;22.80;99.90
20858;DHT22;10589;53.636;10.012;2023-09-07T18:24:58;22.70;99.90
20858;DHT22;10589;53.636;10.012;2023-09-07T18:27:24;22.70;99.90
20858;DHT22;10589;53.636;10.012;2023-09-07T18:29:50;22.70;99.90
20858;DHT22;10589;53.636;10.012;2023-09-07T18:32:17;22.70;99.90
20858;DHT22;10589;53.636;10.012;2023-09-07T18:34:43;22.60;99.90
20858;DHT22;10589;53.636;10.012;2023-09-07T18:37:09;22.50;99.90
20858;DHT22;10589;53.636;10.012;2023-09-07T18:39:36;22.40;99.90
20858;DHT22;10589;53.636;10.012;2023-09-07T18:42:02;22.40;99.90
20858;DHT22;10589;53.636;10.012;2023-09-07T18:44:28;22.30;99.90
20858;DHT22;10589;53.636;10.012;2023-09-07T18:46:53;22.20;99.90
20858;DHT22;10589;53.636;10.012;2023-09-07T18:49:20;22.20;99.90
20858;DHT22;10589;53.636;10.012;2023-09-07T18:51:46;22.10;99.90
20858;DHT22;10589;53.636;10.012;2023-09-07T18:54:12;22.00;99.90
20858;DHT22;10589;53.636;10.012;2023-09-07T18:56:39;21.90;99.90